createdAt,value
2023-03-25T00:09:52.259Z,95663.38
2023-03-25T00:20:12.631Z,95641.53
2023-03-25T00:30:20.821Z,95641.53
2023-03-25T00:40:29.849Z,95573.25
2023-03-25T00:50:36.568Z,95573.25
2023-03-25T01:00:43.106Z,95453.88
2023-03-25T01:10:49.626Z,95413.19
2023-03-25T01:20:56.588Z,95363.81
2023-03-25T01:31:07.696Z,95316.25
2023-03-25T01:41:14.326Z,95265.78
2023-03-25T01:51:27.848Z,95276.47
2023-03-25T02:01:34.525Z,95467.47
2023-03-25T02:11:41.877Z,95665.88
2023-03-25T02:22:27.140Z,95759.72
2023-03-25T02:32:39.553Z,95830.31
2023-03-25T02:42:51.627Z,95891.00
2023-03-25T02:53:02.026Z,95965.25
2023-03-25T03:03:09.648Z,95972.97
2023-03-25T03:13:25.132Z,95925.06
2023-03-25T03:23:39.536Z,95925.06
2023-03-25T03:33:56.660Z,95988.25
2023-03-25T03:44:09.798Z,95981.75
2023-03-25T03:54:58.818Z,95989.84
2023-03-25T04:05:08.410Z,96007.53
2023-03-25T04:15:15.947Z,96006.91
2023-03-25T04:25:26.879Z,96017.53
2023-03-25T04:35:34.565Z,96025.59
2023-03-25T04:45:43.979Z,96051.41
2023-03-25T04:55:50.958Z,96041.47
2023-03-25T05:05:57.915Z,96042.53
2023-03-25T05:16:04.449Z,96027.59
2023-03-25T05:26:11.219Z,96036.06
2023-03-25T05:36:20.530Z,96052.41
2023-03-25T05:46:27.139Z,96055.03
2023-03-25T05:56:33.691Z,96042.69
2023-03-25T06:06:41.166Z,96065.94
2023-03-25T06:16:48.285Z,96093.09
2023-03-25T06:28:26.689Z,96272.97
2023-03-25T06:38:41.664Z,96055.03
2023-03-25T06:48:54.692Z,96083.97
2023-03-25T06:59:07.694Z,96082.69
2023-03-25T07:09:20.708Z,96050.00
2023-03-25T07:19:33.701Z,95918.44
2023-03-25T07:29:47.708Z,96069.16
2023-03-25T07:40:00.717Z,96231.97
2023-03-25T07:50:14.754Z,96373.56
2023-03-25T08:00:27.761Z,96608.06
2023-03-25T08:10:42.762Z,96689.78
2023-03-25T08:20:57.731Z,96611.16
2023-03-25T08:31:17.796Z,96726.50
2023-03-25T08:41:30.733Z,96808.19
2023-03-25T08:51:43.784Z,96886.06
2023-03-25T09:01:57.800Z,96893.00
2023-03-25T09:12:13.792Z,96939.22
2023-03-25T09:22:26.780Z,96967.59
2023-03-25T09:32:39.856Z,96975.06
2023-03-25T09:43:06.818Z,97034.00
2023-03-25T09:53:22.817Z,97081.22
2023-03-25T10:03:41.829Z,97050.78
2023-03-25T10:14:07.933Z,97017.31
2023-03-25T10:24:34.856Z,97063.66
2023-03-25T10:34:54.901Z,97032.09
2023-03-25T10:45:07.852Z,96946.78
2023-03-25T10:55:31.882Z,96898.66
2023-03-25T11:05:44.881Z,96925.44
2023-03-25T11:16:00.903Z,96844.34
2023-03-25T11:26:18.919Z,96912.25
2023-03-25T11:36:45.894Z,97021.97
2023-03-25T11:46:59.881Z,97029.84
2023-03-25T11:57:15.909Z,97033.22
2023-03-25T12:07:29.924Z,97006.06
2023-03-25T12:18:07.996Z,97038.41
2023-03-25T12:28:52.950Z,97026.88
2023-03-25T12:39:35.754Z,96797.09
2023-03-25T12:50:05.944Z,96426.91
2023-03-25T13:00:24.974Z,96310.41
2023-03-25T13:10:48.053Z,96390.97
2023-03-25T13:21:31.976Z,96319.75
2023-03-25T13:31:54.993Z,96333.94
2023-03-25T13:42:20.005Z,96373.78
2023-03-25T13:52:38.009Z,96486.00
2023-03-25T14:03:19.999Z,96755.38
2023-03-25T14:13:36.032Z,96873.78
2023-03-25T14:23:49.024Z,96863.22
2023-03-25T14:34:08.065Z,96867.22
2023-03-25T14:44:28.031Z,96972.63
2023-03-25T14:54:42.062Z,96967.87
2023-03-25T15:05:05.027Z,96950.66
2023-03-25T15:15:53.218Z,96931.03
2023-03-25T15:26:07.083Z,96918.59
2023-03-25T15:37:04.068Z,96906.47
2023-03-25T15:47:38.156Z,96912.03
2023-03-25T15:57:55.067Z,96913.87
2023-03-25T16:08:17.113Z,96888.66
2023-03-25T16:18:31.100Z,96871.28
2023-03-25T16:28:50.126Z,96863.13
2023-03-25T16:39:10.128Z,96849.78
2023-03-25T16:49:30.149Z,96814.16
2023-03-25T16:59:45.140Z,96809.06
2023-03-25T17:09:59.142Z,96788.03
2023-03-25T17:20:16.129Z,96777.50
2023-03-25T17:30:48.212Z,96786.59
2023-03-25T17:41:14.141Z,96800.87
2023-03-25T17:51:28.204Z,96805.97
2023-03-25T18:01:43.220Z,96793.97
2023-03-25T18:12:00.207Z,96787.59
2023-03-25T18:22:19.765Z,96766.16
2023-03-25T18:32:33.248Z,96746.47
2023-03-25T18:42:46.235Z,96723.97
2023-03-25T18:52:59.271Z,96727.09
2023-03-25T19:03:12.301Z,96727.91
2023-03-25T19:13:27.235Z,96743.88
2023-03-25T19:23:40.228Z,96751.56
2023-03-25T19:34:00.280Z,96745.25
2023-03-25T19:44:13.228Z,96713.00
2023-03-25T19:54:26.307Z,96720.09
2023-03-25T20:04:40.263Z,96683.19
2023-03-25T20:14:53.285Z,96681.41
2023-03-25T20:25:06.262Z,96630.38
2023-03-25T20:35:21.352Z,96646.81
2023-03-25T20:45:37.336Z,96714.50
2023-03-25T20:55:50.472Z,96761.13
2023-03-25T21:06:21.004Z,96778.84
2023-03-25T21:16:37.410Z,96831.34
2023-03-25T21:26:50.302Z,96821.25
2023-03-25T21:37:11.323Z,96558.78
2023-03-25T21:47:25.394Z,96395.06
2023-03-25T21:57:38.562Z,96361.12
2023-03-25T22:07:52.369Z,96456.19
2023-03-25T22:18:05.386Z,96456.37
2023-03-25T22:28:18.377Z,96428.66
2023-03-25T22:38:31.379Z,96408.66
2023-03-25T22:48:47.356Z,96433.75
2023-03-25T22:59:01.383Z,96462.56
2023-03-25T23:09:16.401Z,96459.81
2023-03-25T23:19:29.419Z,96439.22
2023-03-25T23:29:44.445Z,96460.59
2023-03-25T23:40:04.455Z,96478.91
2023-03-25T23:50:19.412Z,96483.25
